Nassauborg — PHDU — position and weather

sailwx.info

Track history (hours):
 
Tides and Currents Weather Stations Pressure Air Temp Water Temp Dewpoint Dewpoint Depression Visibility Wind Speed Wind Dir Waves Ship Positions

Nassauborg

Ship's website: http://www.wagenborg.com/index.cfm?pid=37&itemid=158&contentitemid=236

Last reported at 2016-May-30 03:06 UTC. Time now 2016-May-30 08:50 UTC.
Position N 50°24' W 000°42'.

Length 143 m; beam 22 m.

Type: Ship. MMSI: 246430000.

Date/timePositionNaut miles runAvg speedWind from/ knotsBaromVisibWave heightAir tempDewpointWater temp
2016-May-30 03:06N 50°24' W 000°42'610.2
2016-May-30 02:33N 50°25' W 000°33'1010.4
2016-May-30 01:33N 50°28' W 000°18'1111.1
2016-May-30 00:33N 50°32' W 000°01'1211.7
2016-May-29 23:33N 50°35' E 000°17'3812.6
2016-May-29 20:31N 50°55' E 001°09'1111.8
2016-May-29 19:33N 51°02' E 001°23'1111.2
2016-May-29 18:33N 51°09' E 001°36'1110.7
2016-May-29 17:33N 51°17' E 001°48'1411.8
2016-May-29 16:20N 51°29' E 001°60'1012.6
2016-May-29 15:33N 51°36' E 002°11'7912.9
2016-May-29 09:26N 52°38' E 003°30'7511.8
2016-May-29 03:05N 53°40' E 004°41'1912.3
2016-May-29 01:33N 53°57' E 004°52'1411.9
2016-May-29 00:20N 54°11' E 005°02'1011.9
2016-May-28 23:29N 54°20' E 005°09'27511.9
2016-May-28 00:16N 57°50' E 010°28'811.3
2016-May-27 23:33N 57°49' E 010°43'6 6.4
2016-May-27 22:33N 57°44' E 010°51'1211.7
2016-May-27 21:33N 57°41' E 011°12'1211.8
2016-May-27 20:33N 57°35' E 011°31'5 4.9
2016-May-27 19:32N 57°35' E 011°41'0 0.1
2016-May-27 18:31N 57°35' E 011°41'0 0.1
2016-May-27 17:33N 57°36' E 011°41'2 2.0
2016-May-27 16:34N 57°34' E 011°39'1211.7
2016-May-27 15:33N 57°22' E 011°36'1212.3
2016-May-27 14:33N 57°10' E 011°38'1212.4
2016-May-27 13:33N 56°58' E 011°45'1211.9
2016-May-27 12:33N 56°47' E 011°52'7612.0
2016-May-27 06:11N 55°40' E 010°47'1112.4
2016-May-27 05:16N 55°29' E 010°54'912.2
2016-May-27 04:33N 55°22' E 011°02'1110.9
2016-May-27 03:33N 55°11' E 011°03'1211.8
2016-May-27 02:33N 54°59' E 010°59'1212.4
2016-May-27 01:33N 54°48' E 010°50'1010.0
2016-May-27 00:34N 54°38' E 010°53'1212.1
2016-May-26 23:34N 54°35' E 011°13'1312.7
2016-May-26 22:33N 54°30' E 011°33'1312.7
2016-May-26 21:33N 54°26' E 011°54'1111.0
2016-May-26 20:33N 54°30' E 012°12'1311.6
2016-May-26 19:26N 54°40' E 012°24'1112.5
2016-May-26 18:33N 54°46' E 012°40'1212.2
2016-May-26 17:34N 54°51' E 012°60'1212.4
2016-May-26 16:33N 54°55' E 013°20'1212.2
2016-May-26 15:33N 54°59' E 013°40'1211.9
2016-May-26 14:33N 55°04' E 013°60'1212.0
2016-May-26 13:33N 55°13' E 014°13'1212.4
2016-May-26 12:33N 55°22' E 014°28'1212.3
2016-May-26 11:33N 55°30' E 014°44'1212.4
2016-May-26 10:34N 55°36' E 015°03'1312.4
2016-May-26 09:30N 55°42' E 015°23'31412.0
2016-May-25 07:13N 59°25' E 022°16'812.1
2016-May-25 06:33N 59°30' E 022°29'1212.1
2016-May-25 05:32N 59°34' E 022°52'1212.3
2016-May-25 04:33N 59°37' E 023°15'1212.1
2016-May-25 03:33N 59°40' E 023°38'6312.1
2016-May-24 22:21N 59°55' E 025°40'912.1
2016-May-24 21:33N 59°57' E 025°58'1211.9
2016-May-24 20:32N 60°03' E 026°19'1212.1
2016-May-24 19:33N 60°11' E 026°38'1212.1
2016-May-24 18:33N 60°18' E 026°57'1111.3
2016-May-24 17:33N 60°25' E 027°16'7 7.3
2016-May-24 16:33N 60°32' E 027°10'0 0.0
2016-May-24 15:25N 60°32' E 027°10'0 0.0
2016-May-24 14:31N 60°32' E 027°10'0 0.0
2016-May-24 13:33N 60°32' E 027°10'0 0.0
2016-May-24 11:24N 60°32' E 027°10'0 0.0
2016-May-24 10:29N 60°32' E 027°10'0 0.0
2016-May-24 09:29N 60°32' E 027°10'0 0.0
2016-May-24 08:31N 60°32' E 027°10'0 0.0
2016-May-24 07:28N 60°32' E 027°10'0 0.0
2016-May-24 06:27N 60°32' E 027°10'0 0.0
2016-May-24 05:30N 60°32' E 027°10'0 0.0
2016-May-24 04:33N 60°32' E 027°10'0 0.0
2016-May-24 03:32N 60°32' E 027°10'0 0.0
2016-May-24 02:26N 60°32' E 027°10'0 0.0
2016-May-24 01:31N 60°32' E 027°10'0 0.0
2016-May-24 00:31N 60°32' E 027°10'0 0.0
2016-May-23 23:33N 60°32' E 027°10'0 0.0
2016-May-23 22:30N 60°32' E 027°10'0 0.0
2016-May-23 21:30N 60°32' E 027°10'0 0.0
2016-May-23 20:26N 60°32' E 027°10'0 0.0
2016-May-23 18:28N 60°32' E 027°10'0 0.0
2016-May-23 15:27N 60°32' E 027°10'0 0.0
2016-May-23 14:33N 60°32' E 027°10'0 0.0
2016-May-23 13:32N 60°32' E 027°10'0 0.2
2016-May-23 12:32N 60°31' E 027°10'0 0.2
2016-May-23 11:28N 60°32' E 027°10'0 0.0
2016-May-23 08:21N 60°32' E 027°10'0 0.0
2016-May-22 21:10N 60°32' E 027°10'0 0.0
2016-May-22 20:31N 60°32' E 027°10'0 0.0
2016-May-22 17:29N 60°32' E 027°10'0 0.0
2016-May-22 16:23N 60°32' E 027°10'0 0.0
2016-May-22 15:13N 60°32' E 027°10'0 0.0
2016-May-22 14:22N 60°32' E 027°10'0 0.0
2016-May-22 13:19N 60°32' E 027°10'0 0.0
2016-May-22 00:04N 60°32' E 027°10'0 0.0
2016-May-21 21:33N 60°32' E 027°10'0 0.0
2016-May-21 20:26N 60°32' E 027°10'0 0.0
2016-May-20 18:21N 60°32' E 027°10'0 0.0
2016-May-20 16:11N 60°32' E 027°10'0 0.0
2016-May-20 15:32N 60°32' E 027°10'0 0.0
2016-May-20 14:28N 60°32' E 027°10'0 0.0
2016-May-20 11:09N 60°32' E 027°10'0 0.0
2016-May-20 08:32N 60°32' E 027°10'0 0.0
2016-May-20 07:07N 60°32' E 027°10'0 0.0
2016-May-20 06:22N 60°32' E 027°10'0 0.0
2016-May-20 05:31N 60°32' E 027°10'0 0.0
2016-May-20 04:30N 60°32' E 027°10'0 0.0
2016-May-20 03:30N 60°32' E 027°10'  
Track history (hours):
 
Tides and Currents Weather Stations Pressure Air Temp Water Temp Dewpoint Dewpoint Depression Visibility Wind Speed Wind Dir Waves Ship Positions

Nassauborg

Ship's website: http://www.wagenborg.com/index.cfm?pid=37&itemid=158&contentitemid=236

Last reported at 2016-May-30 03:06 UTC. Time now 2016-May-30 08:50 UTC.
Position N 50°24' W 000°42'.

Length 143 m; beam 22 m.

Type: Ship. MMSI: 246430000.

Date/timePositionNaut miles runAvg speedWind from/ knotsBaromVisibWave heightAir tempDewpointWater temp
2016-May-30 03:06N 50°24' W 000°42'610.2
2016-May-30 02:33N 50°25' W 000°33'1010.4
2016-May-30 01:33N 50°28' W 000°18'1111.1
2016-May-30 00:33N 50°32' W 000°01'1211.7
2016-May-29 23:33N 50°35' E 000°17'3812.6
2016-May-29 20:31N 50°55' E 001°09'1111.8
2016-May-29 19:33N 51°02' E 001°23'1111.2
2016-May-29 18:33N 51°09' E 001°36'1110.7
2016-May-29 17:33N 51°17' E 001°48'1411.8
2016-May-29 16:20N 51°29' E 001°60'1012.6
2016-May-29 15:33N 51°36' E 002°11'7912.9
2016-May-29 09:26N 52°38' E 003°30'7511.8
2016-May-29 03:05N 53°40' E 004°41'1912.3
2016-May-29 01:33N 53°57' E 004°52'1411.9
2016-May-29 00:20N 54°11' E 005°02'1011.9
2016-May-28 23:29N 54°20' E 005°09'27511.9
2016-May-28 00:16N 57°50' E 010°28'811.3
2016-May-27 23:33N 57°49' E 010°43'6 6.4
2016-May-27 22:33N 57°44' E 010°51'1211.7
2016-May-27 21:33N 57°41' E 011°12'1211.8
2016-May-27 20:33N 57°35' E 011°31'5 4.9
2016-May-27 19:32N 57°35' E 011°41'0 0.1
2016-May-27 18:31N 57°35' E 011°41'0 0.1
2016-May-27 17:33N 57°36' E 011°41'2 2.0
2016-May-27 16:34N 57°34' E 011°39'1211.7
2016-May-27 15:33N 57°22' E 011°36'1212.3
2016-May-27 14:33N 57°10' E 011°38'1212.4
2016-May-27 13:33N 56°58' E 011°45'1211.9
2016-May-27 12:33N 56°47' E 011°52'7612.0
2016-May-27 06:11N 55°40' E 010°47'1112.4
2016-May-27 05:16N 55°29' E 010°54'912.2
2016-May-27 04:33N 55°22' E 011°02'1110.9
2016-May-27 03:33N 55°11' E 011°03'1211.8
2016-May-27 02:33N 54°59' E 010°59'1212.4
2016-May-27 01:33N 54°48' E 010°50'1010.0
2016-May-27 00:34N 54°38' E 010°53'1212.1
2016-May-26 23:34N 54°35' E 011°13'1312.7
2016-May-26 22:33N 54°30' E 011°33'1312.7
2016-May-26 21:33N 54°26' E 011°54'1111.0
2016-May-26 20:33N 54°30' E 012°12'1311.6
2016-May-26 19:26N 54°40' E 012°24'1112.5
2016-May-26 18:33N 54°46' E 012°40'1212.2
2016-May-26 17:34N 54°51' E 012°60'1212.4
2016-May-26 16:33N 54°55' E 013°20'1212.2
2016-May-26 15:33N 54°59' E 013°40'1211.9
2016-May-26 14:33N 55°04' E 013°60'1212.0
2016-May-26 13:33N 55°13' E 014°13'1212.4
2016-May-26 12:33N 55°22' E 014°28'1212.3
2016-May-26 11:33N 55°30' E 014°44'1212.4
2016-May-26 10:34N 55°36' E 015°03'1312.4
2016-May-26 09:30N 55°42' E 015°23'31412.0
2016-May-25 07:13N 59°25' E 022°16'812.1
2016-May-25 06:33N 59°30' E 022°29'1212.1
2016-May-25 05:32N 59°34' E 022°52'1212.3
2016-May-25 04:33N 59°37' E 023°15'1212.1
2016-May-25 03:33N 59°40' E 023°38'6312.1
2016-May-24 22:21N 59°55' E 025°40'912.1
2016-May-24 21:33N 59°57' E 025°58'1211.9
2016-May-24 20:32N 60°03' E 026°19'1212.1
2016-May-24 19:33N 60°11' E 026°38'1212.1
2016-May-24 18:33N 60°18' E 026°57'1111.3
2016-May-24 17:33N 60°25' E 027°16'7 7.3
2016-May-24 16:33N 60°32' E 027°10'0 0.0
2016-May-24 15:25N 60°32' E 027°10'0 0.0
2016-May-24 14:31N 60°32' E 027°10'0 0.0
2016-May-24 13:33N 60°32' E 027°10'0 0.0
2016-May-24 11:24N 60°32' E 027°10'0 0.0
2016-May-24 10:29N 60°32' E 027°10'0 0.0
2016-May-24 09:29N 60°32' E 027°10'0 0.0
2016-May-24 08:31N 60°32' E 027°10'0 0.0
2016-May-24 07:28N 60°32' E 027°10'0 0.0
2016-May-24 06:27N 60°32' E 027°10'0 0.0
2016-May-24 05:30N 60°32' E 027°10'0 0.0
2016-May-24 04:33N 60°32' E 027°10'0 0.0
2016-May-24 03:32N 60°32' E 027°10'0 0.0
2016-May-24 02:26N 60°32' E 027°10'0 0.0
2016-May-24 01:31N 60°32' E 027°10'0 0.0
2016-May-24 00:31N 60°32' E 027°10'0 0.0
2016-May-23 23:33N 60°32' E 027°10'0 0.0
2016-May-23 22:30N 60°32' E 027°10'0 0.0
2016-May-23 21:30N 60°32' E 027°10'0 0.0
2016-May-23 20:26N 60°32' E 027°10'0 0.0
2016-May-23 18:28N 60°32' E 027°10'0 0.0
2016-May-23 15:27N 60°32' E 027°10'0 0.0
2016-May-23 14:33N 60°32' E 027°10'0 0.0
2016-May-23 13:32N 60°32' E 027°10'0 0.2
2016-May-23 12:32N 60°31' E 027°10'0 0.2
2016-May-23 11:28N 60°32' E 027°10'0 0.0
2016-May-23 08:21N 60°32' E 027°10'0 0.0
2016-May-22 21:10N 60°32' E 027°10'0 0.0
2016-May-22 20:31N 60°32' E 027°10'0 0.0
2016-May-22 17:29N 60°32' E 027°10'0 0.0
2016-May-22 16:23N 60°32' E 027°10'0 0.0
2016-May-22 15:13N 60°32' E 027°10'0 0.0
2016-May-22 14:22N 60°32' E 027°10'0 0.0
2016-May-22 13:19N 60°32' E 027°10'0 0.0
2016-May-22 00:04N 60°32' E 027°10'0 0.0
2016-May-21 21:33N 60°32' E 027°10'0 0.0
2016-May-21 20:26N 60°32' E 027°10'0 0.0
2016-May-20 18:21N 60°32' E 027°10'0 0.0
2016-May-20 16:11N 60°32' E 027°10'0 0.0
2016-May-20 15:32N 60°32' E 027°10'0 0.0
2016-May-20 14:28N 60°32' E 027°10'0 0.0
2016-May-20 11:09N 60°32' E 027°10'0 0.0
2016-May-20 08:32N 60°32' E 027°10'0 0.0
2016-May-20 07:07N 60°32' E 027°10'0 0.0
2016-May-20 06:22N 60°32' E 027°10'0 0.0
2016-May-20 05:31N 60°32' E 027°10'0 0.0
2016-May-20 04:30N 60°32' E 027°10'0 0.0
2016-May-20 03:30N 60°32' E 027°10'  

Dump ship's entire track history